Time;durP1;ratioP1;P1;durP2;ratioP2;P2;SDS_P1;SDS_P2;PMS_P1;PMS_P2;Temp;Humidity;BMP_temperature;BMP_pressure;BME280_temperature;BME280_humidity;BME280_pressure;Samples;Min_cycle;Max_cycle;Signal;HPM_P1;HPM_P2
2022/10/06 00:01:52;;;;;;;;;3.25;3.00;;;;;28.33;100.00;101398.59;5089089;27;51223;-43
2022/10/06 00:04:36;;;;;;;;;5.50;2.50;;;;;28.33;100.00;101396.72;5079228;27;51192;-43
2022/10/06 00:07:21;;;;;;;;;3.75;2.00;;;;;28.34;100.00;101400.34;5093801;27;51160;-42
2022/10/06 00:10:06;;;;;;;;;2.00;2.00;;;;;28.33;100.00;101384.91;5097813;27;51546;-42
2022/10/06 00:12:51;;;;;;;;;8.75;2.75;;;;;28.31;100.00;101376.78;5098423;27;51517;-44
2022/10/06 00:15:36;;;;;;;;;6.25;3.00;;;;;28.31;100.00;101376.78;5095055;27;51102;-43
2022/10/06 00:18:21;;;;;;;;;4.00;3.00;;;;;28.33;100.00;101379.44;5094254;27;51198;-43
2022/10/06 00:21:05;;;;;;;;;1.00;1.00;;;;;28.35;100.00;101377.47;5098541;27;51209;-42
2022/10/06 00:23:50;;;;;;;;;4.00;3.00;;;;;28.35;100.00;101392.00;5097747;27;51399;-43
2022/10/06 00:26:35;;;;;;;;;3.00;3.00;;;;;28.32;100.00;101375.78;5083863;27;51101;-44
2022/10/06 00:29:19;;;;;;;;;2.25;2.25;;;;;28.30;100.00;101375.91;5078519;27;51234;-43
2022/10/06 00:32:04;;;;;;;;;3.75;3.00;;;;;28.25;100.00;101366.25;5092603;27;51254;-44
2022/10/06 00:34:48;;;;;;;;;2.00;2.00;;;;;28.25;100.00;101361.69;5098471;27;51562;-42
2022/10/06 00:37:35;;;;;;;;;4.50;2.00;;;;;28.23;100.00;101366.38;5084623;27;51620;-44
2022/10/06 00:40:21;;;;;;;;;2.50;2.50;;;;;28.20;100.00;101363.84;5097832;27;51113;-42
2022/10/06 00:43:06;;;;;;;;;4.00;2.50;;;;;28.19;100.00;101362.09;5095534;27;51166;-42
2022/10/06 00:45:51;;;;;;;;;4.00;2.50;;;;;28.17;100.00;101365.91;5078951;27;51161;-43
2022/10/06 00:48:36;;;;;;;;;6.50;2.25;;;;;28.16;100.00;101356.81;5094783;27;51404;-44
2022/10/06 00:51:21;;;;;;;;;3.50;1.00;;;;;28.16;100.00;101361.44;5097107;27;51971;-43
2022/10/06 00:54:06;;;;;;;;;2.75;1.50;;;;;28.13;100.00;101355.19;5088040;27;51246;-43
2022/10/06 00:56:51;;;;;;;;;2.25;2.25;;;;;28.13;100.00;101355.19;5101557;27;51022;-43
2022/10/06 00:59:36;;;;;;;;;2.00;2.00;;;;;28.16;100.00;101347.75;5095537;27;51158;-43
2022/10/06 01:02:25;;;;;;;;;2.00;2.00;;;;;28.06;100.00;101334.66;5088177;27;51207;-43
2022/10/06 01:05:21;;;;;;;;;2.50;1.00;;;;;28.13;100.00;101337.91;5078517;27;51259;-42
2022/10/06 01:08:06;;;;;;;;;4.50;2.00;;;;;28.12;100.00;101349.81;5093408;27;51220;-43
2022/10/06 01:10:51;;;;;;;;;3.00;2.75;;;;;28.12;100.00;101347.09;5086102;27;51014;-45
2022/10/06 01:13:35;;;;;;;;;4.75;2.00;;;;;28.09;100.00;101350.03;5096185;27;51340;-43
2022/10/06 01:16:23;;;;;;;;;5.00;2.00;;;;;28.08;100.00;101348.25;5082467;27;51134;-43
2022/10/06 01:19:16;;;;;;;;;1.50;1.50;;;;;28.08;100.00;101348.25;5096880;27;51118;-42
2022/10/06 01:22:04;;;;;;;;;4.00;2.25;;;;;28.07;100.00;101347.38;5094375;27;51057;-43
2022/10/06 01:24:51;;;;;;;;;3.00;2.00;;;;;28.05;100.00;101349.31;5086121;27;51124;-44
2022/10/06 01:27:37;;;;;;;;;3.00;3.00;;;;;28.07;100.00;101343.75;5088361;27;51171;-43
2022/10/06 01:30:30;;;;;;;;;4.75;3.25;;;;;28.07;100.00;101344.63;5090942;27;51392;-43
2022/10/06 01:33:14;;;;;;;;;2.00;1.75;;;;;28.07;100.00;101341.91;5081670;27;51119;-43
2022/10/06 01:35:59;;;;;;;;;3.50;2.00;;;;;28.06;100.00;101345.63;5089333;27;51134;-43
2022/10/06 01:38:43;;;;;;;;;5.00;2.50;;;;;28.05;100.00;101346.59;5098563;27;51418;-44
2022/10/06 01:41:29;;;;;;;;;1.00;1.00;;;;;28.06;100.00;101352.94;5100629;27;51406;-43
2022/10/06 01:44:14;;;;;;;;;3.00;2.00;;;;;28.05;100.00;101342.97;5089681;27;51654;-42
2022/10/06 01:46:58;;;;;;;;;4.00;2.00;;;;;28.06;100.00;101339.25;5083355;27;51116;-43
2022/10/06 01:49:43;;;;;;;;;2.25;2.00;;;;;28.07;100.00;101330.06;5080877;27;51348;-44
2022/10/06 01:52:27;;;;;;;;;2.75;2.00;;;;;28.06;100.00;101333.78;5084385;27;51204;-45
2022/10/06 01:55:13;;;;;;;;;3.25;3.00;;;;;28.03;100.00;101326.66;5095733;27;51125;-44
2022/10/06 01:57:58;;;;;;;;;3.75;2.00;;;;;28.03;100.00;101342.22;5095324;27;51325;-43
2022/10/06 02:00:42;;;;;;;;;4.00;3.00;;;;;27.93;100.00;101326.44;5084607;27;51098;-48
2022/10/06 02:03:28;;;;;;;;;5.00;4.00;;;;;27.97;100.00;101330.69;5082107;27;52076;-43
2022/10/06 02:06:12;;;;;;;;;5.00;3.25;;;;;27.97;100.00;101335.31;5081787;27;51110;-44
2022/10/06 02:08:59;;;;;;;;;3.75;2.00;;;;;27.96;100.00;101331.66;5086677;27;51123;-43
2022/10/06 02:11:44;;;;;;;;;5.50;1.75;;;;;27.96;100.00;101323.47;5098576;27;51681;-44
2022/10/06 02:14:30;;;;;;;;;3.00;3.00;;;;;27.92;100.00;101311.00;5093661;27;51223;-44
2022/10/06 02:17:15;;;;;;;;;8.00;4.25;;;;;27.94;100.00;101317.22;5095040;27;51396;-43
2022/10/06 02:19:59;;;;;;;;;2.25;2.00;;;;;27.92;100.00;101308.28;5087915;27;51105;-44
2022/10/06 02:22:44;;;;;;;;;4.75;2.00;;;;;27.93;100.00;101315.50;5097176;27;51045;-43
2022/10/06 02:25:28;;;;;;;;;5.25;4.00;;;;;27.93;100.00;101311.88;5099803;27;51182;-43
2022/10/06 02:28:13;;;;;;;;;4.25;3.00;;;;;27.92;100.00;101304.63;5086235;27;51300;-43
2022/10/06 02:31:02;;;;;;;;;5.00;3.50;;;;;27.90;100.00;101302.03;5097052;27;51104;-43
2022/10/06 02:33:47;;;;;;;;;7.50;5.50;;;;;27.89;100.00;101300.25;5085224;27;51080;-42
2022/10/06 02:36:31;;;;;;;;;3.00;1.50;;;;;27.86;100.00;101291.41;5079729;27;52034;-43
2022/10/06 02:39:16;;;;;;;;;5.25;2.75;;;;;27.89;100.00;101304.84;5081462;27;51097;-43
2022/10/06 02:42:03;;;;;;;;;4.25;4.00;;;;;27.90;100.00;101303.88;5092863;27;51042;-43
2022/10/06 02:44:50;;;;;;;;;5.50;4.00;;;;;27.89;100.00;101308.47;5094997;27;51566;-43
2022/10/06 02:47:36;;;;;;;;;3.75;3.25;;;;;27.88;100.00;101303.97;5084384;27;51176;-43
2022/10/06 02:50:22;;;;;;;;;4.25;3.25;;;;;27.88;100.00;101305.84;5097126;27;51012;-45
2022/10/06 02:53:07;;;;;;;;;3.50;3.25;;;;;27.87;100.00;101309.56;5087949;27;51488;-43
2022/10/06 02:56:02;;;;;;;;;5.25;3.75;;;;;27.88;100.00;101311.31;5079714;27;51333;-43
2022/10/06 02:58:48;;;;;;;;;4.50;4.00;;;;;27.87;100.00;101307.69;5094210;27;51131;-43
2022/10/06 03:01:33;;;;;;;;;7.00;4.50;;;;;27.87;100.00;101307.69;5092012;27;51079;-43
2022/10/06 03:04:18;;;;;;;;;4.25;2.25;;;;;27.87;100.00;101306.81;5089882;27;51340;-43
2022/10/06 03:07:03;;;;;;;;;4.00;3.25;;;;;27.85;100.00;101306.91;5098732;27;51103;-43
2022/10/06 03:09:47;;;;;;;;;5.00;5.00;;;;;27.84;100.00;101303.31;5084361;27;51171;-43
2022/10/06 03:12:32;;;;;;;;;7.75;4.25;;;;;27.83;100.00;101296.09;5079656;27;51056;-44
2022/10/06 03:15:19;;;;;;;;;4.50;4.00;;;;;27.83;100.00;101289.75;5080490;27;51179;-43
2022/10/06 03:18:03;;;;;;;;;5.00;3.25;;;;;27.83;100.00;101293.34;5093792;27;51269;-43
2022/10/06 03:20:48;;;;;;;;;8.00;4.00;;;;;27.82;100.00;101285.28;5083297;27;51279;-44
2022/10/06 03:23:32;;;;;;;;;9.75;4.50;;;;;27.83;100.00;101292.50;5090456;27;51105;-43
2022/10/06 03:26:19;;;;;;;;;7.25;3.00;;;;;27.82;100.00;101299.81;5098668;27;51178;-43
2022/10/06 03:29:05;;;;;;;;;7.75;5.00;;;;;27.81;100.00;101299.91;5078399;27;51499;-43
2022/10/06 03:31:49;;;;;;;;;3.25;3.25;;;;;27.80;100.00;101307.22;5088501;27;52003;-43
2022/10/06 03:34:34;;;;;;;;;6.00;4.75;;;;;27.79;100.00;101294.53;5090741;27;51418;-44
2022/10/06 03:37:19;;;;;;;;;8.25;4.25;;;;;27.79;100.00;101291.78;5098161;27;51173;-43
2022/10/06 03:40:05;;;;;;;;;4.25;2.75;;;;;27.74;100.00;101279.41;5099307;27;51080;-45
2022/10/06 03:42:50;;;;;;;;;3.50;3.00;;;;;27.78;100.00;101292.78;5096848;27;51099;-43
2022/10/06 03:45:35;;;;;;;;;7.75;4.75;;;;;27.79;100.00;101290.94;5084113;27;51497;-43
2022/10/06 03:48:19;;;;;;;;;9.25;3.00;;;;;27.77;100.00;101295.63;5094738;27;51233;-45
2022/10/06 03:51:10;;;;;;;;;5.25;4.00;;;;;27.76;100.00;101291.13;5090952;27;51201;-42
2022/10/06 03:53:55;;;;;;;;;6.00;4.00;;;;;27.75;100.00;101284.81;5093016;27;51045;-43
2022/10/06 03:56:41;;;;;;;;;4.00;4.00;;;;;27.75;100.00;101286.66;5097906;27;51055;-43
2022/10/06 03:59:27;;;;;;;;;6.00;4.75;;;;;27.72;100.00;101282.28;5082223;27;51279;-42
2022/10/06 04:02:12;;;;;;;;;7.25;4.75;;;;;27.72;100.00;101292.34;5091225;27;51487;-44
2022/10/06 04:04:57;;;;;;;;;3.75;2.75;;;;;27.66;100.00;101288.16;5085034;27;51083;-44
2022/10/06 04:07:42;;;;;;;;;5.50;4.25;;;;;27.69;100.00;101298.88;5083339;27;51152;-43
2022/10/06 04:10:26;;;;;;;;;4.75;4.25;;;;;27.75;100.00;101308.50;5091169;27;52766;-44
2022/10/06 04:13:11;;;;;;;;;4.50;4.50;;;;;27.75;100.00;101313.97;5095464;27;51147;-45
2022/10/06 04:15:56;;;;;;;;;5.25;5.25;;;;;27.78;100.00;101319.25;5079511;27;51077;-42
2022/10/06 04:18:41;;;;;;;;;4.00;4.00;;;;;27.76;100.00;101323.94;5090351;27;51537;-44
2022/10/06 04:21:27;;;;;;;;;4.00;4.00;;;;;27.84;100.00;101337.97;5081640;27;51127;-45
2022/10/06 04:24:12;;;;;;;;;7.00;5.00;;;;;27.84;100.00;101335.22;5097926;27;52027;-44
2022/10/06 04:27:43;;;;;;;;;4.25;4.25;;;;;27.88;100.00;101341.41;5097504;27;51261;-44
2022/10/06 04:30:02;;;;;;;;;5.75;4.00;;;;;27.88;100.00;101336.78;5078454;27;51165;-43
2022/10/06 04:32:47;;;;;;;;;3.25;3.25;;;;;27.88;100.00;101345.00;5100347;27;51135;-43
2022/10/06 04:35:31;;;;;;;;;7.00;4.75;;;;;27.88;100.00;101344.13;5097521;27;51564;-44
2022/10/06 04:38:16;;;;;;;;;10.25;5.25;;;;;27.86;100.00;101344.22;5100900;27;51074;-44
2022/10/06 04:41:13;;;;;;;;;7.00;7.00;;;;;27.89;100.00;101349.50;5085046;27;51136;-43
2022/10/06 04:43:58;;;;;;;;;7.00;5.00;;;;;27.95;100.00;101345.47;5086087;27;51341;-43
2022/10/06 04:46:43;;;;;;;;;11.25;5.00;;;;;27.96;100.00;101344.50;5087643;27;51626;-43
2022/10/06 04:49:28;;;;;;;;;7.25;7.00;;;;;27.97;100.00;101343.50;5088375;27;51187;-44
2022/10/06 04:52:12;;;;;;;;;8.25;6.75;;;;;27.97;100.00;101351.72;5082622;27;51171;-43
2022/10/06 04:54:57;;;;;;;;;8.25;7.00;;;;;27.94;100.00;101350.03;5100028;27;51757;-43
2022/10/06 04:57:41;;;;;;;;;7.50;7.00;;;;;27.95;100.00;101357.25;5100900;27;51021;-43
2022/10/06 05:00:27;;;;;;;;;7.75;7.75;;;;;27.96;100.00;101367.22;5084921;27;51504;-44
2022/10/06 05:03:12;;;;;;;;;11.50;10.50;;;;;27.96;100.00;101367.22;5087645;27;51103;-44
2022/10/06 05:06:09;;;;;;;;;8.00;6.75;;;;;27.97;100.00;101374.47;5094406;27;51203;-44
2022/10/06 05:09:05;;;;;;;;;7.75;7.50;;;;;27.97;100.00;101377.19;5084495;27;51357;-43
2022/10/06 05:11:50;;;;;;;;;8.75;8.00;;;;;27.97;100.00;101376.31;5097450;27;51037;-43
2022/10/06 05:14:35;;;;;;;;;12.00;9.25;;;;;27.98;100.00;101378.09;5099210;27;51444;-44
2022/10/06 05:17:20;;;;;;;;;16.75;14.00;;;;;27.99;100.00;101380.72;5089003;27;51218;-43
2022/10/06 05:20:05;;;;;;;;;21.00;12.75;;;;;28.01;100.00;101383.31;5086980;27;51089;-43
2022/10/06 05:22:50;;;;;;;;;14.00;11.75;;;;;28.03;100.00;101394.19;5097414;27;51098;-44
2022/10/06 05:25:34;;;;;;;;;12.75;8.50;;;;;28.01;100.00;101388.78;5090435;27;51079;-43
2022/10/06 05:28:20;;;;;;;;;11.50;10.75;;;;;27.97;100.00;101396.34;5094842;27;51365;-44
2022/10/06 05:31:07;;;;;;;;;17.75;10.00;;;;;27.98;100.00;101409.03;5083584;27;51073;-43
2022/10/06 05:33:52;;;;;;;;;18.75;13.75;;;;;27.99;100.00;101398.97;5091642;27;51420;-43
2022/10/06 05:36:37;;;;;;;;;12.50;11.00;;;;;27.96;100.00;101408.25;5093787;27;51110;-43
2022/10/06 05:39:22;;;;;;;;;18.75;16.00;;;;;27.96;100.00;101408.25;5097412;27;51207;-44
2022/10/06 05:42:07;;;;;;;;;23.25;15.50;;;;;27.97;100.00;101410.00;5096963;27;51161;-43
2022/10/06 05:44:51;;;;;;;;;16.50;14.00;;;;;28.02;100.00;101423.38;5081450;27;51100;-43
2022/10/06 05:47:36;;;;;;;;;19.25;15.50;;;;;28.04;100.00;101412.34;5091739;27;51488;-38
2022/10/06 05:50:20;;;;;;;;;26.50;20.75;;;;;28.07;100.00;101423.06;5092067;27;51103;-36
2022/10/06 05:53:05;;;;;;;;;22.75;20.00;;;;;28.10;100.00;101426.50;5096936;27;51061;-37
2022/10/06 05:55:49;;;;;;;;;28.00;24.50;;;;;28.15;100.00;101426.19;5092380;27;51100;-38
2022/10/06 05:58:35;;;;;;;;;28.75;24.25;;;;;28.18;100.00;101420.53;5081936;27;51394;-38
2022/10/06 06:01:33;;;;;;;;;42.75;33.25;;;;;28.28;100.00;101435.34;5080357;27;51218;-38
2022/10/06 06:04:18;;;;;;;;;43.00;31.50;;;;;28.47;100.00;101434.06;5083617;27;51459;-38
2022/10/06 06:07:02;;;;;;;;;41.50;34.25;;;;;28.61;100.00;101428.53;5100666;27;51203;-37
2022/10/06 06:09:47;;;;;;;;;39.25;32.25;;;;;28.78;100.00;101426.53;5086223;27;51097;-37
2022/10/06 06:12:31;;;;;;;;;39.50;31.00;;;;;28.99;100.00;101426.84;5094618;27;51149;-39
2022/10/06 06:18:19;;;;;;;;;28.75;21.75;;;;;29.34;100.00;101441.78;5096076;27;51298;-38
2022/10/06 06:21:06;;;;;;;;;35.00;28.75;;;;;29.53;100.00;101433.97;5098907;27;51069;-39
2022/10/06 06:23:52;;;;;;;;;34.25;28.50;;;;;29.68;100.00;101431.09;5089881;27;51149;-37
2022/10/06 06:26:36;;;;;;;;;29.75;24.00;;;;;29.66;100.00;101441.28;5082792;27;51249;-38
2022/10/06 06:29:22;;;;;;;;;43.25;35.50;;;;;29.63;100.00;101436.06;5094529;27;51672;-39
2022/10/06 06:32:08;;;;;;;;;19.25;16.25;;;;;29.75;100.00;101437.88;5097264;27;51159;-38
2022/10/06 06:34:53;;;;;;;;;21.75;16.25;;;;;30.32;100.00;101438.25;5080810;27;51166;-37
2022/10/06 06:37:38;;;;;;;;;21.50;17.25;;;;;30.44;100.00;101419.94;5095190;27;51084;-38
2022/10/06 06:40:22;;;;;;;;;16.25;13.50;;;;;30.42;100.00;101432.94;5101149;27;51571;-38
2022/10/06 06:43:07;;;;;;;;;9.50;8.75;;;;;30.41;100.00;101433.94;5101079;27;51104;-37
2022/10/06 06:45:52;;;;;;;;;17.75;16.25;;;;;30.88;100.00;101443.09;5092507;27;51118;-38
2022/10/06 06:48:37;;;;;;;;;21.00;16.00;;;;;32.15;100.00;101437.47;5085295;27;51129;-39
2022/10/06 06:51:22;;;;;;;;;22.50;18.75;;;;;33.51;100.00;101428.47;5089046;27;51189;-38
2022/10/06 06:54:08;;;;;;;;;21.25;19.25;;;;;34.44;100.00;101400.63;5093733;27;51138;-39
2022/10/06 06:56:55;;;;;;;;;20.75;17.25;;;;;35.09;100.00;101390.75;5082566;27;51179;-38
2022/10/06 06:59:40;;;;;;;;;26.75;23.00;;;;;36.02;100.00;101389.88;5080296;27;51123;-38
2022/10/06 07:02:28;;;;;;;;;21.50;20.00;;;;;37.18;100.00;101380.56;5080252;27;51155;-39
2022/10/06 07:05:13;;;;;;;;;18.50;14.75;;;;;38.52;100.00;101374.34;5082967;27;51169;-39
2022/10/06 07:07:58;;;;;;;;;23.50;17.50;;;;;39.34;100.00;101371.41;5078979;27;51451;-38
2022/10/06 07:10:43;;;;;;;;;18.50;15.50;;;;;40.15;100.00;101364.66;5083110;27;51270;-39
2022/10/06 07:13:28;;;;;;;;;21.00;18.00;;;;;41.05;100.00;101371.34;5078580;27;51539;-39
2022/10/06 07:25:28;;;;;;;;;18.25;15.25;;;;;40.69;100.00;101372.03;5086503;27;51079;-38
2022/10/06 07:28:15;;;;;;;;;18.00;15.50;;;;;39.60;100.00;101388.84;5073647;27;51253;-38
2022/10/06 07:31:00;;;;;;;;;13.75;11.00;;;;;38.39;100.00;101388.75;5083157;27;51390;-37
2022/10/06 07:33:44;;;;;;;;;16.00;12.25;;;;;37.17;100.00;101394.63;5081961;27;51209;-37
2022/10/06 07:36:30;;;;;;;;;12.50;10.75;;;;;36.44;100.00;101413.31;5091313;27;51073;-36
2022/10/06 07:39:15;;;;;;;;;15.75;10.75;;;;;36.14;100.00;101420.97;5067184;27;51514;-39
2022/10/06 07:41:59;;;;;;;;;10.75;10.00;;;;;35.82;100.00;101422.31;5086194;27;51365;-37
2022/10/06 07:47:59;;;;;;;;;16.25;10.25;;;;;37.71;100.00;101424.88;5070155;27;51289;-40
2022/10/06 07:50:47;;;;;;;;;10.00;7.25;;;;;39.93;100.00;101411.81;5083363;27;51181;-41
2022/10/06 07:53:34;;;;;;;;;10.50;8.25;;;;;41.75;100.00;101410.06;5096805;27;51288;-39
2022/10/06 07:56:20;;;;;;;;;10.00;8.25;;;;;43.27;100.00;101404.38;5100017;27;51399;-37
2022/10/06 07:59:05;;;;;;;;;9.00;6.75;;;;;44.52;100.00;101405.19;5092286;27;51221;-39
2022/10/06 08:01:51;;;;;;;;;13.25;8.00;;;;;45.48;100.00;101408.47;5087537;27;51169;-39
2022/10/06 08:04:35;;;;;;;;;9.75;8.25;;;;;46.23;100.00;101412.66;5096094;27;51191;-36
2022/10/06 08:07:20;;;;;;;;;7.00;7.00;;;;;46.89;100.00;101407.53;5088891;27;51162;-38
2022/10/06 08:10:05;;;;;;;;;9.75;5.50;;;;;47.14;100.00;101424.44;5097471;27;51178;-36
2022/10/06 08:12:50;;;;;;;;;12.25;10.00;;;;;47.43;100.00;101421.03;5086393;27;51181;-37
2022/10/06 08:15:35;;;;;;;;;6.00;6.00;;;;;48.17;100.00;101415.25;5103205;27;51557;-38
2022/10/06 08:18:20;;;;;;;;;9.50;7.25;;;;;48.65;100.00;101421.03;5089696;27;51112;-38
2022/10/06 08:21:10;;;;;;;;;7.25;6.50;;;;;48.91;100.00;101418.81;5083151;27;51064;-36
2022/10/06 08:23:56;;;;;;;;;9.00;8.00;;;;;49.10;100.00;101414.78;5084464;27;51124;-39
2022/10/06 08:26:42;;;;;;;;;8.75;6.75;;;;;49.42;100.00;101413.47;5098140;27;51544;-38
2022/10/06 08:29:27;;;;;;;;;5.25;5.00;;;;;49.67;100.00;101427.28;5087887;27;51171;-37
2022/10/06 08:32:12;;;;;;;;;7.50;7.50;;;;;49.17;100.00;101429.63;5082413;27;51195;-38
2022/10/06 08:34:56;;;;;;;;;7.50;7.50;;;;;47.16;100.00;101421.38;5081051;27;51470;-39
2022/10/06 08:37:41;;;;;;;;;10.00;7.00;;;;;45.08;100.00;101415.09;5101163;27;51154;-38
2022/10/06 08:40:27;;;;;;;;;10.25;6.25;;;;;43.24;100.00;101427.19;5103395;27;51378;-37
2022/10/06 08:43:18;;;;;;;;;10.75;9.00;;;;;41.75;100.00;101431.56;5067484;27;51187;-37
2022/10/06 08:46:03;;;;;;;;;7.75;6.75;;;;;40.67;100.00;101432.75;5090216;27;51418;-38
2022/10/06 08:48:48;;;;;;;;;10.50;7.00;;;;;39.80;100.00;101440.28;5086608;27;51135;-37
2022/10/06 08:51:54;;;;;;;;;11.75;8.25;;;;;39.15;100.00;101441.38;5103522;27;51062;-37
2022/10/06 08:54:57;;;;;;;;;10.00;8.25;;;;;38.88;100.00;101441.59;5088771;27;51485;-39
2022/10/06 08:58:07;;;;;;;;;7.00;7.00;;;;;38.55;100.00;101441.59;5089378;27;51238;-41
2022/10/06 09:00:55;;;;;;;;;8.75;8.00;;;;;38.14;100.00;101444.31;5085192;27;51502;-38
2022/10/06 09:03:42;;;;;;;;;8.75;7.25;;;;;37.84;100.00;101457.72;5086870;27;51282;-37
2022/10/06 09:06:32;;;;;;;;;11.00;8.25;;;;;37.66;100.00;101469.81;5086838;27;51552;-39
2022/10/06 09:09:32;;;;;;;;;8.75;8.00;;;;;37.49;100.00;101466.09;5082327;27;51137;-39
2022/10/06 09:12:26;;;;;;;;;8.75;7.00;;;;;37.41;100.00;101457.72;5087518;27;51397;-39
2022/10/06 09:15:13;;;;;;;;;9.50;7.00;;;;;37.38;100.00;101474.66;5090212;27;51195;-38
2022/10/06 09:18:21;;;;;;;;;8.25;6.50;;;;;37.10;100.00;101472.06;5086629;27;51139;-39
2022/10/06 09:21:36;;;;;;;;;5.50;5.00;;;;;36.94;100.00;101467.28;5099969;27;51379;-40
2022/10/06 09:24:35;;;;;;;;;7.25;6.50;;;;;36.87;100.00;101466.16;5083143;27;51261;-36
2022/10/06 09:27:31;;;;;;;;;6.50;6.25;;;;;36.72;100.00;101469.50;5089628;27;52627;-38
2022/10/06 09:30:16;;;;;;;;;11.75;9.25;;;;;36.66;100.00;101474.81;5079226;27;51192;-38
2022/10/06 09:33:04;;;;;;;;;8.00;6.75;;;;;36.41;100.00;101463.47;5079953;27;51272;-38
2022/10/06 09:36:22;;;;;;;;;6.25;4.50;;;;;36.12;100.00;101472.88;5075725;27;51247;-39
2022/10/06 09:39:23;;;;;;;;;7.25;3.75;;;;;35.89;100.00;101476.03;5061772;27;51211;-39
2022/10/06 09:42:20;;;;;;;;;8.00;5.00;;;;;35.60;100.00;101476.22;5091096;27;51197;-39
2022/10/06 09:45:23;;;;;;;;;7.25;5.50;;;;;35.48;100.00;101473.63;5102070;27;51091;-40
2022/10/06 09:48:23;;;;;;;;;3.75;3.00;;;;;35.34;100.00;101476.84;5095809;27;51543;-40
2022/10/06 09:51:16;;;;;;;;;3.50;3.00;;;;;35.19;100.00;101477.31;5081541;27;51137;-41
2022/10/06 09:54:09;;;;;;;;;4.50;4.00;;;;;35.03;100.00;101486.25;5087620;27;51346;-40
2022/10/06 09:56:57;;;;;;;;;4.75;3.25;;;;;35.02;100.00;101475.34;5088290;27;51116;-39
2022/10/06 09:59:43;;;;;;;;;6.00;5.00;;;;;34.95;100.00;101480.59;5084645;27;51518;-41
2022/10/06 10:02:35;;;;;;;;;6.25;6.25;;;;;34.95;100.00;101483.34;5085742;27;51210;-39
2022/10/06 10:05:22;;;;;;;;;7.75;6.50;;;;;34.88;100.00;101482.19;5094593;27;51314;-39
2022/10/06 10:08:22;;;;;;;;;9.00;6.50;;;;;34.73;100.00;101492.81;5080643;27;51136;-45
2022/10/06 10:12:23;;;;;;;;;1.00;1.00;;;;;34.65;100.00;101487.16;5091483;27;51046;-38
2022/10/06 10:14:16;;;;;;;;;9.50;6.00;;;;;34.67;100.00;101480.44;5081615;27;51379;-39
2022/10/06 10:17:28;;;;;;;;;9.25;7.25;;;;;34.67;100.00;101479.56;5090901;27;51136;-40
2022/10/06 10:20:24;;;;;;;;;9.00;6.50;;;;;34.57;100.00;101483.19;5083289;27;51133;-41
2022/10/06 10:23:17;;;;;;;;;6.25;4.75;;;;;34.49;100.00;101474.78;5080936;27;51130;-37
2022/10/06 10:26:17;;;;;;;;;6.00;3.50;;;;;34.47;100.00;101473.19;5080181;27;51155;-39
2022/10/06 10:29:39;;;;;;;;;4.00;4.00;;;;;34.52;100.00;101466.22;5080800;27;51151;-39
2022/10/06 10:32:51;;;;;;;;;4.25;3.00;;;;;34.47;100.00;101464.91;5081306;27;51203;-39
2022/10/06 10:35:49;;;;;;;;;2.75;2.75;;;;;34.41;100.00;101464.44;5085582;27;51194;-39
2022/10/06 10:38:39;;;;;;;;;3.00;2.25;;;;;34.32;100.00;101454.22;5086211;27;51112;-39
2022/10/06 10:41:28;;;;;;;;;3.25;2.75;;;;;34.24;100.00;101448.56;5083803;27;51853;-39
2022/10/06 10:44:30;;;;;;;;;8.25;6.00;;;;;34.19;100.00;101445.34;5086669;27;51288;-39
2022/10/06 10:47:34;;;;;;;;;3.00;3.00;;;;;34.06;100.00;101438.22;5093320;27;51331;-40
2022/10/06 10:50:25;;;;;;;;;6.50;6.50;;;;;33.98;100.00;101447.22;5084429;27;52388;-39
2022/10/06 10:53:46;;;;;;;;;7.00;4.50;;;;;33.89;100.00;101452.72;5089401;27;51528;-38
2022/10/06 10:56:32;;;;;;;;;3.00;2.00;;;;;33.76;100.00;101434.47;5092926;27;51025;-39
2022/10/06 10:59:33;;;;;;;;;7.00;3.50;;;;;33.86;100.00;101444.69;5081376;27;51480;-39
2022/10/06 11:02:19;;;;;;;;;4.50;2.75;;;;;34.03;100.00;101445.91;5081232;27;51053;-39
2022/10/06 11:05:49;;;;;;;;;5.00;3.00;;;;;34.08;100.00;101438.94;5080831;27;51049;-39
2022/10/06 11:08:33;;;;;;;;;6.25;2.00;;;;;33.92;100.00;101439.50;5079290;27;51556;-39
2022/10/06 11:11:33;;;;;;;;;7.50;5.00;;;;;33.75;100.00;101435.53;5082876;27;51155;-40
2022/10/06 11:14:42;;;;;;;;;4.75;3.00;;;;;33.65;100.00;101441.00;5090640;27;51349;-39
2022/10/06 11:17:45;;;;;;;;;7.50;5.25;;;;;33.61;100.00;101445.03;5078690;27;51230;-39
2022/10/06 11:20:43;;;;;;;;;2.75;2.00;;;;;33.67;100.00;101432.56;5084548;27;51424;-39
2022/10/06 11:23:43;;;;;;;;;5.25;3.00;;;;;33.74;100.00;101432.88;5094864;27;51198;-39
2022/10/06 11:26:48;;;;;;;;;5.25;2.75;;;;;33.75;100.00;101430.00;5085858;27;51088;-39
2022/10/06 11:29:38;;;;;;;;;8.75;2.75;;;;;33.66;100.00;101423.44;5099998;27;51100;-39
2022/10/06 11:32:53;;;;;;;;;7.00;3.00;;;;;33.72;100.00;101412.81;5092985;27;51179;-39
2022/10/06 11:35:42;;;;;;;;;5.75;4.75;;;;;33.73;100.00;101409.94;5084392;27;51575;-39
2022/10/06 11:38:39;;;;;;;;;1.25;1.00;;;;;33.73;100.00;101414.56;5087093;27;51155;-39
2022/10/06 11:41:28;;;;;;;;;5.25;4.50;;;;;33.58;100.00;101401.19;5086341;27;51173;-38
2022/10/06 11:44:31;;;;;;;;;2.50;2.00;;;;;33.57;100.00;101393.03;5091188;27;51077;-38
2022/10/06 11:47:24;;;;;;;;;4.00;3.25;;;;;33.56;100.00;101392.19;5071466;27;51571;-39
2022/10/06 11:50:41;;;;;;;;;5.25;3.75;;;;;33.46;100.00;101369.22;5081154;27;51222;-39
2022/10/06 11:53:36;;;;;;;;;6.25;3.50;;;;;33.33;100.00;101378.59;5082555;27;51394;-39
2022/10/06 11:56:33;;;;;;;;;4.00;3.00;;;;;33.36;100.00;101359.03;5096187;27;51208;-39
2022/10/06 11:59:29;;;;;;;;;4.25;3.50;;;;;33.41;100.00;101361.34;5081018;27;51065;-38
2022/10/06 12:02:32;;;;;;;;;6.25;5.00;;;;;33.35;100.00;101359.16;5091634;27;51510;-38
2022/10/06 12:05:19;;;;;;;;;9.00;7.00;;;;;33.30;100.00;101347.66;5078950;27;51224;-40
2022/10/06 12:08:07;;;;;;;;;9.00;6.75;;;;;33.29;100.00;101335.72;5081741;27;51384;-39
2022/10/06 12:10:53;;;;;;;;;9.00;8.00;;;;;33.20;100.00;101334.69;5089742;27;51511;-39
2022/10/06 12:13:47;;;;;;;;;11.00;10.00;;;;;33.14;100.00;101326.97;5092088;27;51560;-38
2022/10/06 12:16:38;;;;;;;;;9.75;8.50;;;;;33.15;100.00;101325.97;5070484;27;51318;-39
2022/10/06 12:20:15;;;;;;;;;14.00;8.75;;;;;33.21;100.00;101319.00;5090841;27;51504;-38
2022/10/06 12:23:23;;;;;;;;;12.25;6.75;;;;;33.30;100.00;101311.78;5091869;27;51055;-39
2022/10/06 12:26:26;;;;;;;;;5.50;5.50;;;;;33.29;100.00;101294.34;5085835;27;51170;-39
2022/10/06 12:29:33;;;;;;;;;6.00;5.25;;;;;33.20;100.00;101287.81;5092576;27;51199;-40
2022/10/06 12:32:37;;;;;;;;;6.75;5.50;;;;;33.14;100.00;101273.72;5081674;27;51456;-39
2022/10/06 12:35:34;;;;;;;;;10.00;8.50;;;;;33.04;100.00;101265.41;5091960;27;51247;-38
2022/10/06 12:38:40;;;;;;;;;5.50;3.25;;;;;32.95;100.00;101263.50;5082039;27;51566;-39
2022/10/06 13:31:55;;;;;;;;;2.50;2.50;;;;;31.64;100.00;101177.59;4328456;32;51138;-38
2022/10/06 13:34:42;;;;;;;;;9.75;4.75;;;;;31.74;100.00;101178.59;5077106;27;51132;-38
2022/10/06 13:37:27;;;;;;;;;5.00;3.75;;;;;31.86;100.00;101175.78;5080802;27;51495;-38
2022/10/06 13:40:27;;;;;;;;;4.75;3.00;;;;;31.94;100.00;101182.34;5073652;27;51038;-38
2022/10/06 13:43:16;;;;;;;;;7.50;4.25;;;;;31.93;100.00;101177.84;5085520;27;51405;-37
2022/10/06 13:46:01;;;;;;;;;4.50;4.50;;;;;31.92;100.00;101186.22;5087345;27;51152;-39
2022/10/06 13:48:53;;;;;;;;;8.00;4.00;;;;;31.84;100.00;101186.91;5091978;27;51152;-38
2022/10/06 13:51:37;;;;;;;;;7.25;4.00;;;;;31.86;100.00;101181.28;5085432;27;51468;-38
2022/10/06 13:54:54;;;;;;;;;2.00;1.25;;;;;31.91;100.00;101187.22;5083280;27;51301;-38
2022/10/06 13:57:44;;;;;;;;;4.00;1.00;;;;;31.83;100.00;101199.78;5082139;27;51496;-40
2022/10/06 14:00:30;;;;;;;;;3.00;2.00;;;;;31.71;100.00;101186.25;5087328;27;51183;-38
2022/10/06 14:03:22;;;;;;;;;4.50;3.25;;;;;31.62;100.00;101186.00;5096375;27;52830;-39